• Join FlightAware (Why Join?)
  • Login
  • US Flag 
08:54AM EST


 

Airport Tracker/Info


-or-


 

Live Flight TrackerFlight Track Log ✈ N516JB ✈ 07-May-2012 ✈ KHOU - KJFK

Flight Track Log - Related Links

Times and Time Zones

All times are in EDT time to prevent confusion due to time zone crossing. See the N516JB flight status page for this flight to view local times or setup timezone preferences in your user account.

Time Position Orientation Groundspeed Altitude Reporting Facility
EDT Latitude Longitude Course Direction KTS MPH feet Rate Location/Type
07:40AM 29.6414 -95.2102 264° West  Level FlightAware Approximate
07:40AM 29.6339 -95.2936 97° East 164 189 700  Level Houston Center
07:46AM 29.5936 -94.9075 76° East 356 410 11,500 2,100 Climbing Houston Center
07:47AM 29.6192 -94.7889 76° East 370 426 13,800 2,100 Climbing Houston Center
07:48AM 29.6450 -94.6653 86° East 386 444 15,800 1,920 Climbing Houston Center
07:49AM 29.6519 -94.5367 85° East 392 451 17,700 1,860 Climbing Houston Center
07:50AM 29.6611 -94.4031 86° East 417 480 19,500 1,740 Climbing Houston Center
07:51AM 29.6700 -94.2644 85° East 423 487 21,200 1,440 Climbing Houston Center
07:52AM 29.6786 -94.1453 86° East 422 486 22,500 1,260 Climbing Houston Center
07:53AM 29.6872 -94.0019 73° East 422 486 23,800 1,320 Climbing Houston Center
07:54AM 29.7253 -93.8594 72° East 437 503 25,200 1,320 Climbing Houston Center
07:55AM 29.7694 -93.7000 73° East 449 517 26,500 1,140 Climbing Houston Center
07:56AM 29.8025 -93.5786 72° East 455 524 27,500 900 Climbing Houston Center
07:57AM 29.8442 -93.4283 73° East 460 529 28,300 840 Climbing Houston Center
07:58AM 29.8836 -93.2831 72° East 471 542 29,200 1,140 Climbing Houston Center
07:59AM 29.9250 -93.1325 72° East 481 554 30,600 1,260 Climbing Houston Center
08:00AM 29.9661 -92.9844 73° East 481 554 31,800 1,200 Climbing Houston Center
08:01AM 30.0050 -92.8411 72° East 476 548 33,000 1,080 Climbing Houston Center
08:02AM 30.0503 -92.6786 72° East 476 548 34,000 840 Climbing Houston Center
08:03AM 30.0908 -92.5325 74° East 481 554 34,700 480 Climbing Houston Center
08:04AM 30.1272 -92.3886 73° East 481 554 35,000 120 Climbing Houston Center
08:05AM 30.1656 -92.2400 73° East 481 554 35,000  Level Houston Center
08:06AM 30.2058 -92.0911 74° East 481 554 35,000  Level Houston Center
08:07AM 30.2436 -91.9422 73° East 481 554 35,000  Level Houston Center
08:08AM 30.2836 -91.7933 72° East 475 547 35,000 -60 Level Houston Center
08:09AM 30.3192 -91.6658 74° East 475 547 34,900  Descending Houston Center
08:10AM 30.3567 -91.5167 73° East 475 547 35,000  Climbing Houston Center
08:11AM 30.3961 -91.3697 74° East 481 554 35,000  Level Houston Center
08:12AM 30.4333 -91.2203 73° East 481 554 35,000  Level Houston Center
08:13AM 30.4725 -91.0708 74° East 481 554 35,000 -60 Level Houston Center
08:14AM 30.5092 -90.9236 73° East 476 548 34,900  Descending Houston Center
08:15AM 30.5481 -90.7761 75° East 481 554 35,000  Climbing Houston Center
08:16AM 30.5825 -90.6286 73° East 476 548 35,000  Level Houston Center
08:17AM 30.6208 -90.4786 73° East 481 554 35,000  Level Houston Center
08:18AM 30.6592 -90.3286 74° East 481 554 35,000  Level Houston Center
08:19AM 30.6953 -90.1808 74° East 476 548 35,000 -60 Level Houston Center
08:20AM 30.7311 -90.0328 74° East 476 548 34,900 -60 Descending Houston Center
08:21AM 30.7667 -89.8872 73° East 476 548 34,900  Level Houston Center
08:22AM 30.8044 -89.7417 75° East 476 548 34,900  Level Houston Center
08:23AM 30.8378 -89.5933 74° East 471 542 35,000  Climbing Houston Center
08:24AM 30.8731 -89.4475 74° East 471 542 35,000  Level Houston Center
08:25AM 30.9100 -89.2992 74° East 471 542 35,000  Level Houston Center
08:26AM 30.9450 -89.1556 75° East 471 542 35,000  Level Houston Center
08:27AM 30.9817 -88.9947 75° East 471 542 35,000  Level Houston Center
08:28AM 31.0142 -88.8511 69° East 455 524 35,000  Level Houston Center
08:29AM 31.0592 -88.7117 59° Northeast 455 524 35,000  Level Houston Center
08:30AM 31.1272 -88.5786 59° Northeast 455 524 35,000  Level Houston Center
08:31AM 31.1931 -88.4481 58° Northeast 463 533 35,000  Level Houston Center
08:32AM 31.2628 -88.3172 60° Northeast 469 540 35,000  Level Houston Center
08:32AM 31.3039 -88.2333 60° Northeast 479 551 35,000  Level Atlanta Center
08:33AM 31.3711 -88.0978 60° Northeast 486 559 35,000  Level Atlanta Center
08:34AM 31.4336 -87.9692 61° Northeast 473 544 35,000  Level Atlanta Center
08:35AM 31.4961 -87.8381 60° Northeast 463 533 35,000  Level Atlanta Center
08:36AM 31.5739 -87.6803 60° Northeast 463 533 35,000  Level Atlanta Center
08:37AM 31.6406 -87.5464 60° Northeast 463 533 35,000  Level Atlanta Center
08:38AM 31.7047 -87.4147 63° Northeast 463 533 35,000  Level Atlanta Center
08:39AM 31.7625 -87.2825 60° Northeast 458 527 35,000  Level Atlanta Center
08:40AM 31.8286 -87.1481 60° Northeast 458 527 35,000  Level Atlanta Center
08:41AM 31.8922 -87.0206 62° Northeast 458 527 35,000  Level Atlanta Center
08:42AM 31.9450 -86.9025 60° Northeast 453 521 35,000  Level Atlanta Center
08:43AM 32.0108 -86.7697 59° Northeast 453 521 35,000  Level Atlanta Center
08:44AM 32.0828 -86.6275 61° Northeast 453 521 35,000  Level Atlanta Center
08:46AM 32.1436 -86.4992 62° Northeast 453 521 35,000  Level Atlanta Center
08:47AM 32.2069 -86.3586 62° Northeast 453 521 35,000  Level Atlanta Center
08:48AM 32.2700 -86.2153 57° Northeast 454 522 35,000  Level Atlanta Center
08:49AM 32.3411 -86.0867 60° Northeast 448 516 35,000  Level Atlanta Center
08:50AM 32.4017 -85.9625 58° Northeast 448 516 35,000  Level Atlanta Center
08:51AM 32.4703 -85.8311 58° Northeast 443 510 35,000  Level Atlanta Center
08:52AM 32.5389 -85.7019 60° Northeast 453 521 35,000  Level Atlanta Center
08:53AM 32.6011 -85.5750 59° Northeast 451 519 35,000  Level Atlanta Center
08:54AM 32.6589 -85.4600 58° Northeast 451 519 35,000  Level Atlanta Center
08:55AM 32.7250 -85.3328 59° Northeast 451 519 35,000  Level Atlanta Center
08:56AM 32.7889 -85.2050 59° Northeast 446 513 35,000  Level Atlanta Center
08:57AM 32.8717 -85.0431 60° Northeast 440 506 35,000  Level Atlanta Center
08:58AM 32.9333 -84.9150 59° Northeast 440 506 35,000  Level Atlanta Center
08:59AM 32.9989 -84.7844 60° Northeast 445 512 35,000  Level Atlanta Center
09:00AM 33.0600 -84.6561 60° Northeast 451 519 35,000  Level Atlanta Center
09:01AM 33.1233 -84.5250 59° Northeast 444 511 35,000  Level Atlanta Center
09:02AM 33.1883 -84.3964 61° Northeast 444 511 35,000  Level Atlanta Center
09:03AM 33.2492 -84.2650 59° Northeast 444 511 35,000  Level Atlanta Center
09:04AM 33.3289 -84.1083 60° Northeast 444 511 35,000  Level Atlanta Center
09:05AM 33.3914 -83.9767 60° Northeast 444 511 35,000  Level Atlanta Center
09:06AM 33.4539 -83.8469 60° Northeast 444 511 35,000  Level Atlanta Center
09:07AM 33.5161 -83.7150 59° Northeast 449 517 35,000  Level Atlanta Center
09:08AM 33.5806 -83.5850 61° Northeast 449 517 35,000  Level Atlanta Center
09:09AM 33.6425 -83.4525 60° Northeast 449 517 35,000  Level Atlanta Center
09:10AM 33.7044 -83.3222 59° Northeast 449 517 35,000  Level Atlanta Center
09:11AM 33.7706 -83.1917 62° Northeast 449 517 35,000  Level Atlanta Center
09:12AM 33.8300 -83.0586 60° Northeast 449 517 35,000  Level Atlanta Center
09:13AM 33.8936 -82.9253 59° Northeast 449 517 35,000  Level Atlanta Center
09:14AM 33.9508 -82.8092 64° Northeast 449 517 35,000  Level Atlanta Center
09:15AM 33.9956 -82.7008 59° Northeast 449 517 35,000  Level Atlanta Center
09:16AM 34.0711 -82.5467 60° Northeast 449 517 35,000  Level Atlanta Center
09:17AM 34.1403 -82.4000 61° Northeast 449 517 35,000  Level Atlanta Center
09:18AM 34.2008 -82.2656 61° Northeast 449 517 35,000  Level Atlanta Center
09:19AM 34.2617 -82.1311 59° Northeast 449 517 35,000  Level Atlanta Center
09:20AM 34.3261 -81.9989 58° Northeast 449 517 35,000  Level Atlanta Center
09:21AM 34.3928 -81.8689 59° Northeast 449 517 35,000  Level Atlanta Center
09:22AM 34.4572 -81.7386 58° Northeast 454 522 35,000  Level Atlanta Center
09:23AM 34.5236 -81.6083 59° Northeast 449 517 35,000  Level Atlanta Center
09:24AM 34.5878 -81.4778 58° Northeast 449 517 35,000  Level Atlanta Center
09:25AM 34.6397 -81.3753 59° Northeast 449 517 35,000  Level Atlanta Center
09:26AM 34.7097 -81.2314 59° Northeast 445 512 35,000  Level Atlanta Center
09:27AM 34.7733 -81.1031 60° Northeast 445 512 35,000  Level Atlanta Center
09:28AM 34.8369 -80.9692 59° Northeast 452 520 35,000  Level Atlanta Center
09:29AM 34.9064 -80.8272 59° Northeast 447 514 35,000  Level Atlanta Center
09:31AM 35.0528 -80.5242 60° Northeast 445 512 35,000  Level Washington Center
09:32AM 35.1167 -80.3911 59° Northeast 445 512 35,000  Level Washington Center
09:33AM 35.1781 -80.2650 61° Northeast 445 512 35,000  Level Washington Center
09:34AM 35.2394 -80.1314 59° Northeast 440 506 35,000  Level Washington Center
09:35AM 35.3072 -79.9928 59° Northeast 435 501 35,000  Level Washington Center
09:36AM 35.3681 -79.8661 60° Northeast 430 495 35,000  Level Washington Center
09:37AM 35.4314 -79.7319 60° Northeast 430 495 35,000  Level Washington Center
09:38AM 35.4919 -79.6050 60° Northeast 435 501 35,000  Level Washington Center
09:39AM 35.5550 -79.4700 58° Northeast 435 501 35,000  Level Washington Center
09:40AM 35.6061 -79.3678 60° Northeast 435 501 35,000  Level Washington Center
09:41AM 35.6800 -79.2078 61° Northeast 435 501 35,000  Level Washington Center
09:42AM 35.7403 -79.0722 58° Northeast 435 501 35,000  Level Washington Center
09:43AM 35.7978 -78.9569 63° Northeast 440 506 35,000  Level Washington Center
09:44AM 35.8558 -78.8186 76° East 440 506 35,000  Level Washington Center
09:45AM 35.8869 -78.6686 83° East 445 512 35,000  Level Washington Center
09:46AM 35.9039 -78.4975 83° East 450 518 35,000  Level Washington Center
09:47AM 35.9200 -78.3442 71° East 450 518 35,000  Level Washington Center
09:48AM 35.9608 -78.1992 58° Northeast 438 504 35,000  Level Washington Center
09:49AM 36.0261 -78.0678 60° Northeast 438 504 35,000  Level Washington Center
09:50AM 36.0894 -77.9311 59° Northeast 445 512 35,000  Level Washington Center
09:51AM 36.1525 -77.7992 59° Northeast 450 518 35,000  Level Washington Center
09:52AM 36.2153 -77.6669 59° Northeast 445 512 35,000  Level Washington Center
09:53AM 36.2800 -77.5347 63° Northeast 445 512 35,000  Level Washington Center
09:54AM 36.3364 -77.3969 52° Northeast 439 505 35,000  Level Washington Center
09:55AM 36.4111 -77.2800 41° Northeast 434 499 35,000  Level Washington Center
09:56AM 36.5086 -77.1761 41° Northeast 441 507 35,000  Level Washington Center
09:57AM 36.6017 -77.0769 42° Northeast 440 506 35,000  Level Washington Center
09:58AM 36.6947 -76.9725 41° Northeast 440 506 35,000  Level Washington Center
09:59AM 36.7897 -76.8706 42° Northeast 445 512 35,000  Level Washington Center
10:00AM 36.8847 -76.7631 41° Northeast 445 512 35,000  Level Washington Center
10:01AM 36.9794 -76.6606 42° Northeast 445 512 35,000  Level Washington Center
10:02AM 37.0744 -76.5550 40° Northeast 445 512 35,000  Level Washington Center
10:03AM 37.1711 -76.4519 42° Northeast 450 518 35,000  Level Washington Center
10:04AM 37.2572 -76.3539 40° Northeast 450 518 35,000  Level Washington Center
10:05AM 37.3517 -76.2528 40° Northeast 450 518 35,000  Level Washington Center
10:06AM 37.4608 -76.1386 41° Northeast 450 518 35,000  Level Washington Center
10:07AM 37.5572 -76.0344 42° Northeast 450 518 35,000  Level Washington Center
10:08AM 37.6492 -75.9303 42° Northeast 450 518 35,000  Level Washington Center
10:09AM 37.7433 -75.8228 42° Northeast 450 518 35,000  Level Washington Center
10:10AM 37.8394 -75.7128 41° Northeast 450 518 35,000  Level Washington Center
10:11AM 37.9333 -75.6075 41° Northeast 450 518 35,000  Level Washington Center
10:12AM 38.0314 -75.4994 33° Northeast 455 524 35,000  Level Washington Center
10:13AM 38.1356 -75.4122 25° Northeast 455 524 35,000  Level Washington Center
10:14AM 38.2500 -75.3433 27° Northeast 449 517 35,000  Level Washington Center
10:15AM 38.3500 -75.2792 27° Northeast 449 517 35,000  Level Washington Center
10:16AM 38.4622 -75.2047 24° Northeast 443 510 35,000 -120 Level Washington Center
10:17AM 38.5914 -75.1322 26° Northeast 448 516 34,800 -600 Descending Washington Center
10:18AM 38.7056 -75.0597 28° Northeast 448 516 33,900 -960 Descending Washington Center
10:19AM 38.8158 -74.9842 26° Northeast 448 516 33,000 -960 Descending Washington Center
10:20AM 38.9175 -74.9194 26° Northeast 448 516 32,000 -1,680 Descending Washington Center
10:21AM 39.0278 -74.8489 33° Northeast 442 509 29,700 -2,880 Descending Washington Center
10:22AM 39.1375 -74.7567 40° Northeast 452 520 26,400 -3,180 Descending Washington Center
10:23AM 39.2492 -74.6375 40° Northeast 467 537 23,500 -2,280 Descending Washington Center
10:24AM 39.3211 -74.5603 40° Northeast 469 540 22,200 -1,500 Descending New York Center
10:25AM 39.4094 -74.4628 41° Northeast 457 526 20,700 -1,680 Descending New York Center
10:26AM 39.5067 -74.3550 40° Northeast 415 478 18,900 -1,380 Descending New York Center
10:27AM 39.5931 -74.2594 40° Northeast 410 472 18,000 -540 Descending New York Center
10:28AM 39.6792 -74.1667 41° Northeast 405 466 17,900 -1,200 Descending New York Center
10:29AM 39.7544 -74.0814 40° Northeast 405 466 15,600 -2,340 Descending New York Center
10:30AM 39.8406 -73.9881 28° Northeast 400 460 13,200 -1,980 Descending New York Center
10:31AM 39.9403 -73.9194 30° Northeast 373 429 11,700 -1,140 Descending New York Center
10:32AM 40.0189 -73.8608 30° Northeast 340 391 11,000 -360 Descending New York Center
10:33AM 40.0828 -73.8122 34° Northeast 300 345 11,000 -300 Level New York Center
10:34AM 40.1575 -73.7475 38° Northeast 285 328 10,500 -900 Descending New York Center
10:35AM 40.2194 -73.6850 29° Northeast 280 322 9,200 -1,440 Descending New York Center
10:36AM 40.2872 -73.6361 30° Northeast 275 316 7,600 -1,620 Descending New York Center
10:37AM 40.3447 -73.5922 27° Northeast 270 311 6,000 -1,320 Descending New York Center
10:38AM 40.4167 -73.5433 27° Northeast 270 311 5,000 -840 Descending New York Center
10:39AM 40.4781 -73.5022 355° North 270 311 4,300 -540 Descending New York Center
10:40AM 40.5508 -73.5106 348° North 252 290 4,000 -180 Descending New York Center
10:41AM 40.6294 -73.5328 345° North 262 302 4,000 -360 Level New York Center
10:42AM 40.6936 -73.5547 345° North 262 302 3,300 -540 Descending New York Center
10:43AM 40.7636 -73.5794 288° West 248 285 3,000 -180 Descending New York Center
10:44AM 40.7789 -73.6431 232° Southwest 206 237 3,000 -540 Level New York Center
10:45AM 40.7461 -73.6992 202° Southwest 174 200 2,000 -780 Descending New York Center
10:47AM 40.6833 -73.7333 217° Southwest 135 155 1,200 -720 Descending New York TRACON
10:48AM 40.6667 -73.7500 217° Southwest 132 152 400 -840 Descending New York TRACON